Time;durP1;ratioP1;P1;durP2;ratioP2;P2;SDS_P1;SDS_P2;PMS_P1;PMS_P2;Temp;Humidity;BMP_temperature;BMP_pressure;BME280_temperature;BME280_humidity;BME280_pressure;Samples;Min_cycle;Max_cycle;Signal;HPM_P1;HPM_P2
2023/02/03 00:00:33;;;;;;;9.70;4.20;;;;;;;3.88;69.63;99994.55;105158;1259;59694;-55
2023/02/03 00:03:01;;;;;;;15.40;10.70;;;;;;;3.85;69.64;99996.97;105274;1257;59791;-55
2023/02/03 00:05:29;;;;;;;9.90;4.60;;;;;;;3.79;69.61;99996.30;105233;1262;65313;-55
2023/02/03 00:07:58;;;;;;;14.10;10.50;;;;;;;3.79;69.50;99996.92;105089;1258;62754;-55
2023/02/03 00:10:27;;;;;;;9.90;4.60;;;;;;;3.84;69.37;99999.63;105292;1257;65332;-55
2023/02/03 00:12:56;;;;;;;8.90;3.10;;;;;;;3.88;69.25;99998.53;105441;1258;59657;-55
2023/02/03 00:15:25;;;;;;;9.20;4.30;;;;;;;3.86;69.25;99998.09;105703;1257;59689;-55
2023/02/03 00:17:54;;;;;;;9.20;4.60;;;;;;;3.82;69.36;100005.29;105214;1261;65377;-55
2023/02/03 00:20:22;;;;;;;9.00;4.30;;;;;;;3.76;69.41;100003.39;105320;1257;62808;-55
2023/02/03 00:22:51;;;;;;;11.90;5.80;;;;;;;3.70;69.55;100006.47;105352;1259;64907;-55
2023/02/03 00:25:20;;;;;;;16.30;11.30;;;;;;;3.66;69.63;100007.59;105232;1258;60432;-55
2023/02/03 00:27:48;;;;;;;9.00;4.10;;;;;;;3.65;69.69;100007.48;105248;1260;59807;-55
2023/02/03 00:30:17;;;;;;;7.90;3.10;;;;;;;3.70;69.75;100008.73;105254;1262;65302;-55
2023/02/03 00:32:45;;;;;;;12.60;9.30;;;;;;;3.77;69.51;100010.61;105294;1261;63040;-55
2023/02/03 00:35:13;;;;;;;10.60;4.70;;;;;;;3.82;69.36;100008.74;105263;1258;65216;-55
2023/02/03 00:37:42;;;;;;;11.20;5.10;;;;;;;3.86;69.47;100009.20;105398;1259;60486;-55
2023/02/03 00:40:11;;;;;;;9.50;3.80;;;;;;;3.86;69.53;100007.83;105306;1257;60482;-54
2023/02/03 00:42:40;;;;;;;15.80;11.80;;;;;;;3.83;69.57;100007.80;105489;1258;66219;-55
2023/02/03 00:45:08;;;;;;;8.90;4.20;;;;;;;3.78;69.53;100005.85;105310;1258;62664;-55
2023/02/03 00:47:37;;;;;;;18.20;12.30;;;;;;;3.72;69.58;100008.14;105237;1258;65061;-56
2023/02/03 00:50:06;;;;;;;8.10;4.00;;;;;;;3.67;69.62;100009.08;108910;1257;58520;-54
2023/02/03 00:52:35;;;;;;;7.90;3.70;;;;;;;3.71;69.47;100011.13;108854;1257;58173;-54
2023/02/03 00:55:04;;;;;;;9.50;4.00;;;;;;;3.78;69.37;100015.09;108902;1257;66023;-54
2023/02/03 00:57:32;;;;;;;15.60;11.10;;;;;;;3.84;69.32;100010.01;108936;1257;62634;-54
2023/02/03 01:00:01;;;;;;;15.80;10.40;;;;;;;3.87;69.39;100006.19;108898;1257;65026;-54
2023/02/03 01:02:29;;;;;;;8.70;4.00;;;;;;;3.90;69.35;100008.09;108879;1257;58418;-54
2023/02/03 01:04:57;;;;;;;10.90;4.30;;;;;;;3.91;69.37;100008.02;108892;1257;58267;-54
2023/02/03 01:07:27;;;;;;;10.80;5.20;;;;;;;3.90;69.35;100005.66;108872;1257;65218;-54
2023/02/03 01:09:56;;;;;;;16.30;11.80;;;;;;;3.87;69.27;100009.67;108918;1257;62318;-54
2023/02/03 01:12:24;;;;;;;11.10;5.10;;;;;;;3.85;69.31;100010.30;105734;1257;64021;-54
2023/02/03 01:14:52;;;;;;;7.80;3.60;;;;;;;3.90;69.15;100008.48;105218;1257;60891;-54
2023/02/03 01:17:20;;;;;;;9.60;3.50;;;;;;;3.97;68.98;100011.71;105387;1260;60700;-54
2023/02/03 01:19:52;;;;;;;14.30;9.70;;;;;;;4.02;68.95;100011.42;105399;1257;65871;-54
2023/02/03 01:22:20;;;;;;;13.50;10.50;;;;;;;4.03;68.97;100016.19;105235;1258;62476;-54
2023/02/03 01:24:49;;;;;;;16.80;11.00;;;;;;;4.02;69.09;100017.82;105480;1258;64697;-54
2023/02/03 01:27:18;;;;;;;9.80;4.40;;;;;;;4.00;69.06;100020.41;105274;1257;60482;-54
2023/02/03 01:29:46;;;;;;;10.00;4.10;;;;;;;3.96;69.07;100020.98;105334;1258;60559;-54
2023/02/03 01:32:14;;;;;;;16.60;11.60;;;;;;;3.91;69.10;100015.66;105277;1260;66185;-54
2023/02/03 01:34:43;;;;;;;10.20;4.20;;;;;;;3.84;69.12;100012.24;105436;1260;62358;-55
2023/02/03 01:37:13;;;;;;;15.30;7.10;;;;;;;3.79;69.24;100018.30;107278;1258;64708;-53
2023/02/03 01:39:42;;;;;;;16.50;11.80;;;;;;;3.75;69.28;100017.45;105162;1260;60466;-54
2023/02/03 01:42:12;;;;;;;8.90;4.00;;;;;;;3.69;69.23;100015.75;105382;1260;60443;-53
2023/02/03 01:44:49;;;;;;;12.10;5.20;;;;;;;3.67;69.09;100008.73;105518;1258;66518;-55
2023/02/03 01:47:54;;;;;;;8.50;3.50;;;;;;;3.66;69.14;100008.47;105346;1260;62655;-53
2023/02/03 01:50:33;;;;;;;13.40;10.00;;;;;;;3.68;69.36;100009.38;105208;1257;65257;-54
2023/02/03 01:53:04;;;;;;;7.20;2.90;;;;;;;3.75;69.36;100003.97;105176;1260;60655;-54
2023/02/03 01:55:37;;;;;;;8.20;3.80;;;;;;;3.75;69.57;100007.77;105356;1262;60419;-54
2023/02/03 01:58:21;;;;;;;15.10;10.50;;;;;;;3.72;69.53;100009.99;105333;1261;66222;-53
2023/02/03 02:00:49;;;;;;;12.60;4.30;;;;;;;3.69;69.64;100011.58;105137;1258;62465;-53
2023/02/03 02:03:18;;;;;;;10.40;4.30;;;;;;;3.65;69.62;100010.27;105221;1262;63745;-53
2023/02/03 02:05:52;;;;;;;9.90;5.80;;;;;;;3.54;69.63;100013.28;105286;1257;60541;-54
2023/02/03 02:08:21;;;;;;;10.80;4.40;;;;;;;3.46;69.68;100007.17;105088;1258;60453;-53
2023/02/03 02:10:50;;;;;;;11.70;4.30;;;;;;;3.44;69.62;100007.46;105089;1262;65889;-54
2023/02/03 02:13:19;;;;;;;12.70;5.10;;;;;;;3.37;69.70;100003.15;104924;1258;62629;-53
2023/02/03 02:16:11;;;;;;;9.80;3.70;;;;;;;3.32;69.78;100005.16;105030;1258;65280;-53
2023/02/03 02:18:49;;;;;;;9.10;3.70;;;;;;;3.35;69.81;100001.54;105208;1257;60677;-53
2023/02/03 02:21:36;;;;;;;9.40;3.80;;;;;;;3.41;69.75;100002.73;105287;1262;60370;-54
2023/02/03 02:24:42;;;;;;;8.70;3.50;;;;;;;3.48;69.74;100004.10;105410;1261;66639;-54
2023/02/03 02:27:30;;;;;;;11.40;4.10;;;;;;;3.55;69.78;100010.46;105241;1257;71240;-54
2023/02/03 02:30:23;;;;;;;11.30;4.50;;;;;;;3.60;69.63;100008.80;105267;1261;65107;-53
2023/02/03 02:32:58;;;;;;;13.20;5.00;;;;;;;3.60;69.77;100016.09;105264;1259;60531;-54
2023/02/03 02:35:32;;;;;;;;;;;;;;;3.60;69.83;100015.06;105387;1257;61625;-54
2023/02/03 02:38:24;;;;;;;8.30;2.80;;;;;;;3.58;69.94;100013.57;105296;1261;66234;-53
2023/02/03 02:41:15;;;;;;;7.90;3.70;;;;;;;3.53;69.82;100009.16;105402;1262;61568;-54
2023/02/03 02:44:17;;;;;;;11.10;4.50;;;;;;;3.47;69.82;100011.59;105227;1258;73544;-54
2023/02/03 02:46:47;;;;;;;10.80;4.70;;;;;;;3.41;69.85;100011.27;105286;1257;60514;-55
2023/02/03 02:49:18;;;;;;;9.10;4.00;;;;;;;3.35;69.89;100006.53;105500;1258;60410;-54
2023/02/03 02:51:47;;;;;;;10.20;4.00;;;;;;;3.31;69.91;100011.48;105317;1262;66264;-54
2023/02/03 02:54:21;;;;;;;9.80;4.60;;;;;;;3.24;69.94;100011.36;105446;1262;61727;-53
2023/02/03 02:56:53;;;;;;;8.10;3.30;;;;;;;3.24;69.96;100009.62;105345;1262;65174;-53
2023/02/03 02:59:22;;;;;;;11.00;4.00;;;;;;;3.28;69.71;100011.11;105258;1260;60515;-54
2023/02/03 03:01:50;;;;;;;7.20;3.20;;;;;;;3.31;69.71;100007.09;105248;1263;60748;-54
2023/02/03 03:04:22;;;;;;;9.60;4.10;;;;;;;3.36;69.83;100000.63;105417;1260;65863;-53
2023/02/03 03:06:54;;;;;;;14.70;11.10;;;;;;;3.43;69.90;100008.58;105302;1262;62387;-53
2023/02/03 03:09:26;;;;;;;9.90;3.60;;;;;;;3.48;69.89;100013.09;105447;1260;64722;-53
2023/02/03 03:12:00;;;;;;;11.80;4.00;;;;;;;3.47;69.97;100005.69;105347;1260;60482;-54
2023/02/03 03:14:29;;;;;;;12.50;10.30;;;;;;;3.45;70.03;100001.11;105439;1260;61466;-53
2023/02/03 03:17:04;;;;;;;8.80;3.80;;;;;;;3.44;70.00;100007.45;105203;1262;66339;-53
2023/02/03 03:19:34;;;;;;;10.50;4.90;;;;;;;3.42;69.81;100009.48;105251;1262;61771;-53
2023/02/03 03:22:04;;;;;;;11.50;4.70;;;;;;;3.39;69.73;100008.77;105274;1257;65705;-54
2023/02/03 03:24:38;;;;;;;11.20;5.60;;;;;;;3.34;69.82;100006.12;105734;1262;62004;-54
2023/02/03 03:27:23;;;;;;;11.00;4.80;;;;;;;3.29;69.85;100009.98;105290;1257;60463;-54
2023/02/03 03:30:12;;;;;;;11.00;6.00;;;;;;;3.25;69.82;100021.15;105373;1260;65152;-54
2023/02/03 03:32:40;;;;;;;10.30;5.10;;;;;;;3.22;69.82;100023.27;105362;1257;61597;-54
2023/02/03 03:35:09;;;;;;;13.30;5.20;;;;;;;3.18;69.88;100023.30;105356;1262;65243;-54
2023/02/03 03:37:44;;;;;;;17.70;12.50;;;;;;;3.21;69.82;100020.70;105329;1258;60554;-54
2023/02/03 03:40:19;;;;;;;9.70;4.20;;;;;;;3.27;69.78;100025.17;105515;1258;60440;-54
2023/02/03 03:42:54;;;;;;;10.50;5.00;;;;;;;3.34;69.70;100021.17;105268;1262;66205;-54
2023/02/03 03:45:31;;;;;;;19.70;12.50;;;;;;;3.41;69.67;100016.12;105415;1261;61927;-54
2023/02/03 03:48:06;;;;;;;10.30;5.10;;;;;;;3.47;69.65;100015.41;105366;1261;64980;-54
2023/02/03 03:50:40;;;;;;;12.00;4.50;;;;;;;3.50;69.62;100014.39;105296;1260;60783;-55
2023/02/03 03:53:09;;;;;;;11.30;6.30;;;;;;;3.49;69.63;100017.90;105234;1257;60371;-54
2023/02/03 03:55:37;;;;;;;18.30;11.60;;;;;;;3.46;69.54;100013.61;105046;1263;66545;-55
2023/02/03 03:58:18;;;;;;;10.30;4.30;;;;;;;3.42;69.48;100010.31;105251;1260;62340;-55
2023/02/03 04:00:47;;;;;;;9.90;3.80;;;;;;;3.39;69.51;100010.15;105384;1262;63914;-55
2023/02/03 04:03:23;;;;;;;11.40;4.90;;;;;;;3.36;69.59;100011.36;105172;1257;60259;-55
2023/02/03 04:05:51;;;;;;;8.70;3.80;;;;;;;3.32;69.62;100014.52;105422;1260;60850;-55
2023/02/03 04:08:20;;;;;;;8.00;3.90;;;;;;;3.27;69.53;100015.83;105270;1258;66183;-54
2023/02/03 04:10:48;;;;;;;10.90;4.10;;;;;;;3.29;69.43;100020.09;105377;1260;62591;-55
2023/02/03 04:13:19;;;;;;;11.40;3.40;;;;;;;3.34;69.29;100020.83;105503;1258;65221;-55
2023/02/03 04:15:47;;;;;;;14.50;9.80;;;;;;;3.38;69.25;100023.06;105276;1260;60588;-55
2023/02/03 04:18:16;;;;;;;7.80;3.70;;;;;;;3.41;69.17;100023.39;105366;1259;60508;-55
2023/02/03 04:20:44;;;;;;;24.40;12.20;;;;;;;3.43;69.25;100027.60;105384;1263;66096;-55
2023/02/03 04:23:12;;;;;;;10.40;3.90;;;;;;;3.44;69.26;100031.52;105279;1260;62701;-55
2023/02/03 04:25:41;;;;;;;8.20;3.80;;;;;;;3.45;69.15;100032.02;105238;1260;65001;-55
2023/02/03 04:28:09;;;;;;;13.50;4.80;;;;;;;3.42;69.29;100030.08;105396;1260;60437;-53
2023/02/03 04:30:37;;;;;;;10.80;4.60;;;;;;;3.41;69.30;100033.31;105322;1259;60479;-55
2023/02/03 04:33:06;;;;;;;14.00;4.50;;;;;;;3.38;69.21;100034.52;105232;1263;66312;-54
2023/02/03 04:35:36;;;;;;;10.10;5.40;;;;;;;3.36;69.37;100037.23;105904;1263;61909;-54
2023/02/03 04:38:04;;;;;;;18.50;12.70;;;;;;;3.34;69.41;100035.41;105328;1260;65034;-54
2023/02/03 04:40:33;;;;;;;11.80;5.50;;;;;;;3.32;69.33;100035.84;105423;1258;60514;-54
2023/02/03 04:43:06;;;;;;;11.70;4.00;;;;;;;3.35;69.15;100033.80;105530;1257;60558;-54
2023/02/03 04:45:35;;;;;;;9.60;4.30;;;;;;;3.39;68.99;100040.35;105272;1262;65984;-54
2023/02/03 04:48:04;;;;;;;14.30;5.30;;;;;;;3.45;69.08;100037.41;105416;1263;62286;-54
2023/02/03 04:50:32;;;;;;;9.30;4.00;;;;;;;3.50;68.99;100031.38;105427;1260;64653;-54
2023/02/03 04:53:02;;;;;;;9.80;4.20;;;;;;;3.50;68.90;100038.13;105378;1263;60594;-55
2023/02/03 04:55:31;;;;;;;10.80;3.50;;;;;;;3.45;68.88;100038.23;105515;1260;60357;-54
2023/02/03 04:58:00;;;;;;;16.80;12.30;;;;;;;3.41;68.98;100044.54;105388;1262;65972;-54
2023/02/03 05:00:28;;;;;;;10.80;4.90;;;;;;;3.38;69.08;100046.80;105161;1262;62482;-55
2023/02/03 05:02:58;;;;;;;23.60;13.30;;;;;;;3.34;69.16;100046.85;105388;1262;72440;-54
2023/02/03 05:05:26;;;;;;;9.70;4.90;;;;;;;3.31;69.32;100043.55;105385;1259;60460;-54
2023/02/03 05:07:56;;;;;;;19.40;6.10;;;;;;;3.34;69.38;100039.21;105277;1259;60553;-54
2023/02/03 05:10:24;;;;;;;16.20;11.10;;;;;;;3.40;69.04;100039.24;105372;1260;66178;-55
2023/02/03 05:12:54;;;;;;;14.40;5.20;;;;;;;3.44;69.05;100040.37;105302;1263;61691;-53
2023/02/03 05:15:23;;;;;;;9.80;4.70;;;;;;;3.47;69.12;100032.77;105269;1260;65023;-52
2023/02/03 05:17:52;;;;;;;18.00;12.20;;;;;;;3.46;69.12;100036.43;105104;1260;60554;-54
2023/02/03 05:20:21;;;;;;;11.20;5.30;;;;;;;3.44;69.06;100034.99;107783;1260;60542;-54
2023/02/03 05:22:50;;;;;;;11.60;4.90;;;;;;;3.40;69.04;100037.34;105375;1263;66211;-56
2023/02/03 05:25:18;;;;;;;12.50;4.30;;;;;;;3.33;69.02;100043.60;105387;1260;62640;-55
2023/02/03 05:27:46;;;;;;;10.10;4.90;;;;;;;3.26;69.12;100045.38;105385;1260;65020;-55
2023/02/03 05:30:15;;;;;;;11.40;5.20;;;;;;;3.20;69.31;100048.15;105232;1260;60465;-55
2023/02/03 05:32:44;;;;;;;11.20;4.80;;;;;;;3.13;69.34;100067.20;105314;1258;60792;-55
2023/02/03 05:35:12;;;;;;;18.40;13.20;;;;;;;3.07;69.39;100069.98;105419;1262;66115;-53
2023/02/03 05:37:43;;;;;;;13.80;3.90;;;;;;;3.05;69.35;100078.41;105360;1261;62545;-54
2023/02/03 05:43:01;;;;;;;9.90;3.90;;;;;;;3.14;69.31;100085.88;105216;1260;60521;-54
2023/02/03 05:45:30;;;;;;;11.80;4.10;;;;;;;3.22;69.42;100086.67;105343;1262;60431;-54
2023/02/03 05:47:58;;;;;;;12.10;5.00;;;;;;;3.29;69.36;100087.85;105858;1260;66187;-55
2023/02/03 05:50:32;;;;;;;14.80;7.00;;;;;;;3.34;69.53;100089.66;105423;1260;62443;-56
2023/02/03 05:53:08;;;;;;;14.30;4.80;;;;;;;3.37;69.56;100098.17;105397;1258;64928;-53
2023/02/03 05:55:36;;;;;;;13.50;6.30;;;;;;;3.33;69.48;100096.48;105267;1258;60457;-54
2023/02/03 05:58:05;;;;;;;22.10;14.50;;;;;;;3.27;69.75;100096.83;105899;1261;60463;-54
2023/02/03 06:00:35;;;;;;;10.70;4.50;;;;;;;3.22;69.85;100098.98;107116;1257;66182;-54
2023/02/03 06:03:03;;;;;;;12.70;5.80;;;;;;;3.19;69.99;100102.25;105286;1258;62357;-54
2023/02/03 06:05:32;;;;;;;15.30;6.20;;;;;;;3.16;70.08;100106.38;105315;1258;65045;-56
2023/02/03 06:08:00;;;;;;;16.30;6.80;;;;;;;3.14;70.18;100107.70;105342;1262;60534;-55
2023/02/03 06:10:29;;;;;;;13.70;6.10;;;;;;;3.13;70.34;100110.55;105474;1260;60559;-55
2023/02/03 06:12:58;;;;;;;12.40;6.00;;;;;;;3.13;70.37;100109.70;105367;1261;66326;-55
2023/02/03 06:15:26;;;;;;;12.40;5.80;;;;;;;3.13;70.39;100109.15;105299;1260;62595;-56
2023/02/03 06:17:55;;;;;;;12.40;7.00;;;;;;;3.17;70.25;100109.98;105276;1260;64000;-55
2023/02/03 06:20:23;;;;;;;22.70;17.30;;;;;;;3.25;70.00;100108.35;105346;1260;60492;-55
2023/02/03 06:22:51;;;;;;;13.30;5.30;;;;;;;3.32;70.08;100108.67;105416;1261;60444;-55
2023/02/03 06:25:19;;;;;;;12.60;5.50;;;;;;;3.38;70.05;100108.15;105258;1262;66212;-54
2023/02/03 06:27:48;;;;;;;14.10;6.50;;;;;;;3.46;70.05;100100.79;105465;1258;62664;-55
2023/02/03 06:30:17;;;;;;;16.30;6.60;;;;;;;3.53;70.22;100105.98;105356;1260;65291;-55
2023/02/03 06:32:46;;;;;;;12.20;7.20;;;;;;;3.58;70.39;100110.05;105320;1260;61765;-55
2023/02/03 06:35:15;;;;;;;14.30;7.10;;;;;;;3.57;70.09;100114.10;105278;1260;60658;-55
2023/02/03 06:37:43;;;;;;;12.90;5.60;;;;;;;3.52;70.11;100117.79;105422;1258;65169;-55
2023/02/03 06:40:12;;;;;;;14.00;6.60;;;;;;;3.48;70.16;100117.34;105300;1263;62272;-56
2023/02/03 06:42:44;;;;;;;15.10;6.70;;;;;;;3.43;70.17;100118.15;105512;1258;65022;-55
2023/02/03 06:45:13;;;;;;;13.50;7.80;;;;;;;3.39;70.29;100124.42;105404;1258;60584;-55
2023/02/03 06:47:42;;;;;;;19.50;7.90;;;;;;;3.39;70.47;100119.23;105450;1260;60531;-55
2023/02/03 06:50:12;;;;;;;14.50;7.10;;;;;;;3.40;70.56;100113.25;105409;1261;65905;-55
2023/02/03 06:52:41;;;;;;;23.50;16.40;;;;;;;3.45;70.63;100118.20;105316;1260;62669;-53
2023/02/03 06:55:09;;;;;;;13.20;5.00;;;;;;;3.54;70.52;100121.14;105349;1262;63728;-55
2023/02/03 06:57:44;;;;;;;15.80;4.90;;;;;;;3.64;70.19;100123.41;105228;1260;60440;-55
2023/02/03 07:00:14;;;;;;;10.70;4.90;;;;;;;3.72;70.07;100121.60;105351;1259;60440;-55
2023/02/03 07:02:49;;;;;;;22.00;15.40;;;;;;;3.79;70.05;100123.95;105422;1261;66005;-54
2023/02/03 07:05:17;;;;;;;22.20;14.90;;;;;;;3.89;70.05;100129.27;104993;1266;62426;-55
2023/02/03 07:07:46;;;;;;;12.10;5.20;;;;;;;3.95;69.96;100132.98;105312;1260;65228;-56
2023/02/03 07:10:16;;;;;;;23.30;16.10;;;;;;;3.96;69.97;100136.90;105331;1258;60660;-56
2023/02/03 07:12:45;;;;;;;12.50;6.30;;;;;;;3.97;69.93;100136.64;105396;1260;60542;-56
2023/02/03 07:15:13;;;;;;;13.90;6.50;;;;;;;3.96;69.88;100129.29;105307;1262;66256;-55
2023/02/03 07:17:42;;;;;;;22.60;15.90;;;;;;;3.92;69.81;100129.99;105262;1261;62652;-55
2023/02/03 07:20:11;;;;;;;12.50;5.50;;;;;;;3.89;69.93;100129.99;105312;1263;65062;-54
2023/02/03 07:22:41;;;;;;;20.70;7.90;;;;;;;3.88;69.98;100129.00;105243;1260;60527;-54
2023/02/03 07:25:09;;;;;;;24.10;15.50;;;;;;;3.86;70.07;100127.58;105272;1257;60528;-55
2023/02/03 07:27:38;;;;;;;14.00;5.80;;;;;;;3.90;70.01;100124.20;105084;1259;66033;-53
2023/02/03 07:30:08;;;;;;;21.80;14.20;;;;;;;4.00;69.84;100119.85;105191;1260;62545;-55
2023/02/03 07:32:36;;;;;;;15.60;7.80;;;;;;;4.10;69.83;100119.81;105062;1263;64737;-56
2023/02/03 07:35:05;;;;;;;22.30;14.60;;;;;;;4.17;69.79;100122.19;105205;1262;61977;-56
2023/02/03 07:50:10;;;;;;;12.40;6.60;;;;;;;4.41;68.61;100127.70;103170;1286;604246;-54
2023/02/03 07:52:37;;;;;;;21.20;13.00;;;;;;;4.64;66.91;100132.62;104587;1270;84148;-54
2023/02/03 07:55:04;;;;;;;19.60;13.60;;;;;;;4.52;66.96;100139.10;104818;1267;60844;-54
2023/02/03 07:57:31;;;;;;;19.70;14.20;;;;;;;4.45;67.13;100143.11;104780;1267;64314;-53
2023/02/03 07:59:58;;;;;;;25.40;14.10;;;;;;;4.37;67.39;100151.21;104613;1268;62533;-54
2023/02/03 08:02:25;;;;;;;20.00;14.20;;;;;;;4.26;67.55;100152.39;104711;1267;64820;-54
2023/02/03 08:04:52;;;;;;;14.70;7.30;;;;;;;4.13;67.75;100154.48;104678;1269;59279;-54
2023/02/03 08:07:19;;;;;;;12.20;6.40;;;;;;;4.04;68.12;100158.31;104619;1267;59362;-54
2023/02/03 08:09:48;;;;;;;16.50;6.60;;;;;;;3.95;68.26;100159.88;104670;1269;64788;-54
2023/02/03 08:12:15;;;;;;;13.30;6.30;;;;;;;3.94;68.26;100162.55;104610;1269;61640;-54
2023/02/03 08:14:42;;;;;;;12.20;4.70;;;;;;;3.97;68.16;100162.55;104802;1270;64667;-54
2023/02/03 08:17:09;;;;;;;11.30;5.40;;;;;;;3.97;67.82;100167.23;104471;1267;60297;-54
2023/02/03 08:19:36;;;;;;;15.90;10.60;;;;;;;3.92;67.91;100168.54;104634;1267;59638;-53
2023/02/03 08:22:03;;;;;;;12.10;5.00;;;;;;;3.84;67.93;100170.33;104558;1267;66567;-54
2023/02/03 08:24:30;;;;;;;14.40;9.40;;;;;;;3.78;67.83;100174.15;104644;1268;62352;-53
2023/02/03 08:26:57;;;;;;;6.40;3.10;;;;;;;3.66;67.98;100175.51;104674;1267;64882;-53
2023/02/03 08:29:24;;;;;;;8.60;2.70;;;;;;;3.57;67.89;100172.70;104752;1267;60019;-53
2023/02/03 08:31:51;;;;;;;6.60;3.50;;;;;;;3.51;68.07;100175.61;104713;1268;59872;-54
2023/02/03 08:34:18;;;;;;;8.70;3.60;;;;;;;3.43;68.27;100176.58;104851;1269;65410;-55
2023/02/03 08:36:46;;;;;;;12.60;8.10;;;;;;;3.31;68.77;100179.65;104684;1267;62628;-54
2023/02/03 08:39:13;;;;;;;7.40;2.40;;;;;;;3.23;69.05;100186.85;104853;1267;64504;-54
2023/02/03 08:41:40;;;;;;;9.80;4.20;;;;;;;3.23;69.23;100192.01;104813;1264;59752;-54
2023/02/03 08:44:08;;;;;;;8.90;4.20;;;;;;;3.29;69.37;100196.38;104984;1264;59689;-53
2023/02/03 08:46:36;;;;;;;9.70;3.70;;;;;;;3.33;69.35;100201.03;104813;1266;65213;-55
2023/02/03 08:49:03;;;;;;;10.00;3.10;;;;;;;3.28;69.54;100205.08;104957;1264;62498;-55
2023/02/03 08:51:30;;;;;;;7.60;2.90;;;;;;;3.22;69.54;100206.83;104991;1264;65205;-55
2023/02/03 08:53:56;;;;;;;7.00;2.20;;;;;;;3.12;69.64;100206.80;104909;1263;59661;-53
2023/02/03 08:56:25;;;;;;;7.40;2.70;;;;;;;3.05;69.84;100211.15;105015;1263;59720;-53
2023/02/03 08:58:53;;;;;;;6.50;3.30;;;;;;;3.00;69.92;100212.80;104943;1267;65082;-53
2023/02/03 09:01:22;;;;;;;7.10;1.90;;;;;;;2.98;70.11;100213.75;104973;1263;62649;-54
2023/02/03 09:03:49;;;;;;;6.70;2.50;;;;;;;3.03;69.97;100215.44;104847;1267;73674;-52
2023/02/03 09:06:16;;;;;;;7.20;4.60;;;;;;;3.09;69.78;100216.50;104872;1266;59733;-54
2023/02/03 09:08:44;;;;;;;6.10;2.00;;;;;;;3.08;69.71;100212.02;104974;1264;61290;-54
2023/02/03 09:11:13;;;;;;;5.10;1.70;;;;;;;3.03;69.58;100218.02;104908;1267;65213;-53
2023/02/03 09:13:44;;;;;;;8.70;4.60;;;;;;;2.96;69.73;100221.15;105006;1263;62666;-53
2023/02/03 09:16:12;;;;;;;5.20;1.90;;;;;;;2.91;70.08;100220.17;105332;1267;65122;-53
2023/02/03 09:18:39;;;;;;;5.30;1.80;;;;;;;2.94;70.08;100222.81;104951;1264;61051;-54
2023/02/03 09:21:07;;;;;;;5.00;1.80;;;;;;;2.94;69.87;100220.36;104902;1263;59839;-57
2023/02/03 09:23:35;;;;;;;6.20;2.30;;;;;;;2.91;69.85;100221.44;105006;1264;64287;-53
2023/02/03 09:26:07;;;;;;;7.30;2.20;;;;;;;2.86;70.06;100223.54;105038;1264;71098;-53
2023/02/03 09:28:34;;;;;;;6.20;2.20;;;;;;;2.84;70.42;100222.27;104952;1265;64763;-53
2023/02/03 09:31:01;;;;;;;4.60;2.10;;;;;;;2.80;70.43;100225.08;105347;1269;62163;-54
2023/02/03 09:33:29;;;;;;;6.70;2.60;;;;;;;2.78;70.18;100223.80;104976;1264;59685;-54
2023/02/03 09:35:58;;;;;;;9.20;5.20;;;;;;;2.76;70.26;100226.83;105057;1264;65754;-54
2023/02/03 09:38:26;;;;;;;5.80;1.80;;;;;;;2.74;70.63;100225.20;105042;1264;71699;-54
2023/02/03 09:40:55;;;;;;;9.90;3.10;;;;;;;2.75;70.95;100222.16;105048;1263;73296;-54
2023/02/03 09:43:41;;;;;;;4.60;1.80;;;;;;;2.82;71.02;100223.42;104933;1263;59656;-55
2023/02/03 09:46:29;;;;;;;5.60;2.40;;;;;;;2.95;70.93;100220.88;105350;1263;60955;-52
2023/02/03 09:48:59;;;;;;;5.00;1.70;;;;;;;3.09;70.67;100219.08;104843;1267;65263;-55
2023/02/03 09:51:28;;;;;;;5.80;2.70;;;;;;;3.16;70.51;100215.59;104760;1264;62335;-55
2023/02/03 09:53:59;;;;;;;5.90;2.50;;;;;;;3.19;70.57;100213.02;104691;1264;67721;-55
2023/02/03 09:56:29;;;;;;;6.40;2.50;;;;;;;3.19;70.44;100209.21;104921;1264;59731;-54
2023/02/03 09:58:56;;;;;;;6.60;2.50;;;;;;;3.14;70.06;100207.38;104796;1263;61118;-54
2023/02/03 10:01:24;;;;;;;6.50;3.00;;;;;;;3.05;70.04;100208.36;104613;1267;73762;-54
2023/02/03 10:03:57;;;;;;;6.70;3.20;;;;;;;3.01;70.17;100209.64;105148;1263;71306;-53
2023/02/03 10:06:35;;;;;;;6.50;2.90;;;;;;;2.98;70.25;100210.61;104544;1264;65100;-53
2023/02/03 10:09:23;;;;;;;7.70;3.60;;;;;;;3.00;70.22;100210.69;104900;1263;59772;-53
2023/02/03 10:12:07;;;;;;;6.10;2.30;;;;;;;3.12;70.26;100215.13;104794;1263;59655;-53
2023/02/03 10:14:34;;;;;;;6.80;2.70;;;;;;;3.21;69.96;100219.54;104583;1264;64430;-53
2023/02/03 10:17:16;;;;;;;5.70;2.10;;;;;;;3.27;69.72;100215.06;104868;1264;71157;-53
2023/02/03 10:19:45;;;;;;;8.20;4.10;;;;;;;3.28;69.91;100209.30;104970;1264;65117;-54
2023/02/03 10:22:16;;;;;;;11.10;7.10;;;;;;;3.30;70.10;100212.61;104964;1263;60270;-53
2023/02/03 10:25:07;;;;;;;6.60;2.70;;;;;;;3.31;69.93;100209.10;104635;1264;61614;-53
2023/02/03 10:27:35;;;;;;;8.80;3.60;;;;;;;3.30;70.00;100206.21;105039;1263;66062;-53
2023/02/03 10:30:15;;;;;;;9.00;3.40;;;;;;;3.36;70.18;100202.27;104776;1264;69427;-54
2023/02/03 10:32:43;;;;;;;7.50;2.80;;;;;;;3.43;69.97;100204.48;104850;1267;73449;-54
2023/02/03 10:35:11;;;;;;;7.20;3.40;;;;;;;3.47;69.65;100203.59;104980;1263;60823;-55
2023/02/03 10:50:13;;;;;;;9.00;3.70;;;;;;;4.18;68.03;100189.52;105656;1260;602923;-55
2023/02/03 10:52:40;;;;;;;10.50;7.10;;;;;;;4.84;66.39;100181.35;107303;1247;155213;-53
2023/02/03 10:55:29;;;;;;;7.80;3.60;;;;;;;4.85;65.49;100177.80;107359;1244;60891;-55
2023/02/03 10:57:57;;;;;;;7.50;4.40;;;;;;;4.87;65.01;100178.56;107534;1242;63617;-53
2023/02/03 11:00:31;;;;;;;10.10;5.70;;;;;;;4.90;64.22;100176.95;107556;1243;71077;-54
2023/02/03 11:03:08;;;;;;;10.60;2.70;;;;;;;4.82;63.77;100176.71;107700;1246;64997;-53
2023/02/03 11:05:35;;;;;;;8.00;3.40;;;;;;;4.72;63.66;100174.23;107418;1241;59284;-53
2023/02/03 11:08:02;;;;;;;6.80;2.70;;;;;;;4.61;63.56;100177.83;107441;1242;61392;-53
2023/02/03 11:10:36;;;;;;;6.90;3.30;;;;;;;4.48;63.59;100180.30;107401;1245;72874;-52
2023/02/03 11:13:23;;;;;;;8.50;5.70;;;;;;;4.35;63.63;100179.84;107380;1248;62340;-52
2023/02/03 11:16:03;;;;;;;7.30;3.00;;;;;;;4.25;63.64;100183.02;107572;1242;64659;-53
2023/02/03 11:18:39;;;;;;;5.10;2.40;;;;;;;4.21;63.46;100180.42;107539;1247;60492;-52
2023/02/03 11:21:10;;;;;;;6.10;2.00;;;;;;;4.25;63.61;100176.56;107490;1246;61000;-52
2023/02/03 11:23:52;;;;;;;7.90;4.90;;;;;;;4.30;63.80;100178.19;107553;1245;72735;-52
2023/02/03 11:26:21;;;;;;;4.20;1.40;;;;;;;4.26;63.30;100173.74;107306;1247;70265;-53
2023/02/03 11:28:50;;;;;;;7.10;2.30;;;;;;;4.18;63.58;100180.08;107422;1241;72215;-52
2023/02/03 11:31:22;;;;;;;5.10;1.80;;;;;;;4.14;64.38;100178.58;107281;1248;59751;-56
2023/02/03 11:33:52;;;;;;;7.50;2.80;;;;;;;4.21;64.70;100178.87;107460;1244;61287;-53
2023/02/03 11:36:19;;;;;;;5.90;3.30;;;;;;;4.20;64.08;100184.83;107582;1245;74062;-52
2023/02/03 11:38:46;;;;;;;8.70;5.50;;;;;;;4.20;64.38;100185.70;107303;1250;69895;-53
2023/02/03 11:41:18;;;;;;;7.40;3.00;;;;;;;4.26;64.27;100181.73;107567;1247;73397;-54
2023/02/03 11:43:46;;;;;;;6.80;3.20;;;;;;;4.36;63.57;100177.33;107663;1241;62194;-51
2023/02/03 11:46:13;;;;;;;5.80;2.80;;;;;;;4.41;63.02;100175.32;107584;1245;61139;-52
2023/02/03 11:48:59;;;;;;;7.40;2.40;;;;;;;4.33;62.80;100167.63;107095;1248;74075;-54
2023/02/03 11:52:00;;;;;;;8.00;2.20;;;;;;;4.21;63.08;100169.67;107164;1248;62344;-53
2023/02/03 11:54:45;;;;;;;6.30;2.80;;;;;;;4.13;63.52;100167.87;107309;1242;64087;-54
2023/02/03 11:57:18;;;;;;;5.00;1.90;;;;;;;4.12;63.58;100174.20;107624;1244;60233;-54
2023/02/03 12:00:03;;;;;;;6.90;3.10;;;;;;;4.09;63.40;100178.48;107647;1242;60954;-53
2023/02/03 12:02:57;;;;;;;7.50;4.80;;;;;;;4.03;63.19;100175.54;107699;1243;73897;-54
2023/02/03 12:05:46;;;;;;;14.00;2.20;;;;;;;3.96;63.60;100171.10;107522;1246;71127;-55